sensor_id;sensor_type;location;lat;lon;timestamp;pressure;altitude;pressure_sealevel;temperature;humidity
35908;BME280;22003;50.320;8.054;2023-02-02T00:00:48;100102.34;;;5.55;100.00
35908;BME280;22003;50.320;8.054;2023-02-02T05:00:34;100198.25;;;5.81;100.00
35908;BME280;22003;50.320;8.054;2023-02-02T05:02:59;100066.81;;;4.79;100.00
35908;BME280;22003;50.320;8.054;2023-02-02T05:05:24;100150.25;;;5.43;100.00
35908;BME280;22003;50.320;8.054;2023-02-02T05:07:49;100163.97;;;5.50;100.00
35908;BME280;22003;50.320;8.054;2023-02-02T05:10:15;100171.59;;;5.54;100.00
35908;BME280;22003;50.320;8.054;2023-02-02T05:12:40;100054.16;;;4.87;100.00
35908;BME280;22003;50.320;8.054;2023-02-02T05:15:06;100115.88;;;5.13;100.00
35908;BME280;22003;50.320;8.054;2023-02-02T05:17:31;100181.34;;;5.52;100.00
35908;BME280;22003;50.320;8.054;2023-02-02T05:19:56;100137.53;;;5.18;100.00
35908;BME280;22003;50.320;8.054;2023-02-02T05:22:22;100187.00;;;5.45;100.00
35908;BME280;22003;50.320;8.054;2023-02-02T05:24:47;100151.91;;;5.28;100.00
35908;BME280;22003;50.320;8.054;2023-02-02T05:27:15;100174.22;;;5.37;100.00
35908;BME280;22003;50.320;8.054;2023-02-02T05:29:41;100200.91;;;5.47;100.00
35908;BME280;22003;50.320;8.054;2023-02-02T05:32:06;100184.69;;;5.39;100.00
35908;BME280;22003;50.320;8.054;2023-02-02T05:34:31;100181.13;;;5.40;100.00
35908;BME280;22003;50.320;8.054;2023-02-02T05:36:57;100182.50;;;5.29;100.00
35908;BME280;22003;50.320;8.054;2023-02-02T05:39:22;100182.91;;;5.39;100.00
35908;BME280;22003;50.320;8.054;2023-02-02T05:41:47;100147.47;;;5.12;100.00
35908;BME280;22003;50.320;8.054;2023-02-02T05:44:13;100218.59;;;5.61;100.00
35908;BME280;22003;50.320;8.054;2023-02-02T05:46:39;100152.44;;;5.18;100.00
35908;BME280;22003;50.320;8.054;2023-02-02T05:49:06;100155.28;;;5.13;100.00
35908;BME280;22003;50.320;8.054;2023-02-02T05:51:36;99967.38;;;3.83;100.00
35908;BME280;22003;50.320;8.054;2023-02-02T05:54:03;100125.53;;;4.76;100.00
35908;BME280;22003;50.320;8.054;2023-02-02T05:56:28;100213.28;;;5.45;100.00
35908;BME280;22003;50.320;8.054;2023-02-02T05:58:54;100083.16;;;4.67;100.00
35908;BME280;22003;50.320;8.054;2023-02-02T06:01:21;100222.63;;;5.50;100.00
35908;BME280;22003;50.320;8.054;2023-02-02T06:03:49;100099.25;;;4.78;100.00
35908;BME280;22003;50.320;8.054;2023-02-02T06:06:16;99972.84;;;3.79;100.00
35908;BME280;22003;50.320;8.054;2023-02-02T06:08:42;99987.13;;;3.90;100.00
35908;BME280;22003;50.320;8.054;2023-02-02T06:11:09;100242.88;;;5.66;100.00
35908;BME280;22003;50.320;8.054;2023-02-02T06:13:35;99932.66;;;3.59;100.00
35908;BME280;22003;50.320;8.054;2023-02-02T06:16:00;99914.44;;;3.39;100.00
35908;BME280;22003;50.320;8.054;2023-02-02T06:18:26;99893.38;;;3.22;100.00
35908;BME280;22003;50.320;8.054;2023-02-02T06:20:58;99883.97;;;3.36;100.00
35908;BME280;22003;50.320;8.054;2023-02-02T06:23:24;99906.19;;;3.47;100.00
35908;BME280;22003;50.320;8.054;2023-02-02T06:25:50;99925.94;;;3.54;100.00
35908;BME280;22003;50.320;8.054;2023-02-02T06:28:21;100158.13;;;5.09;100.00
35908;BME280;22003;50.320;8.054;2023-02-02T06:30:47;99903.84;;;3.59;100.00
35908;BME280;22003;50.320;8.054;2023-02-02T06:33:12;100140.31;;;4.79;100.00
35908;BME280;22003;50.320;8.054;2023-02-02T06:35:38;100133.72;;;5.07;100.00
35908;BME280;22003;50.320;8.054;2023-02-02T06:38:03;100071.50;;;4.36;100.00
35908;BME280;22003;50.320;8.054;2023-02-02T06:40:29;100116.00;;;4.57;100.00
35908;BME280;22003;50.320;8.054;2023-02-02T06:42:59;100098.78;;;4.51;100.00
35908;BME280;22003;50.320;8.054;2023-02-02T06:45:25;100228.13;;;5.63;100.00
35908;BME280;22003;50.320;8.054;2023-02-02T06:47:51;100107.75;;;4.64;100.00
35908;BME280;22003;50.320;8.054;2023-02-02T06:50:17;99956.25;;;3.59;100.00
35908;BME280;22003;50.320;8.054;2023-02-02T06:52:47;100140.44;;;4.95;100.00
35908;BME280;22003;50.320;8.054;2023-02-02T06:55:13;99986.38;;;4.24;100.00
35908;BME280;22003;50.320;8.054;2023-02-02T06:57:39;100026.66;;;4.23;100.00
35908;BME280;22003;50.320;8.054;2023-02-02T07:00:05;99969.47;;;3.94;100.00
35908;BME280;22003;50.320;8.054;2023-02-02T07:02:30;100244.50;;;5.68;100.00
35908;BME280;22003;50.320;8.054;2023-02-02T07:04:55;100247.78;;;5.73;100.00
35908;BME280;22003;50.320;8.054;2023-02-02T07:07:21;100239.13;;;5.89;100.00
35908;BME280;22003;50.320;8.054;2023-02-02T07:09:46;100259.66;;;5.80;100.00
35908;BME280;22003;50.320;8.054;2023-02-02T07:12:11;100247.47;;;5.79;100.00
35908;BME280;22003;50.320;8.054;2023-02-02T07:14:36;100255.59;;;5.92;100.00
35908;BME280;22003;50.320;8.054;2023-02-02T07:17:02;100240.88;;;5.71;100.00
35908;BME280;22003;50.320;8.054;2023-02-02T07:19:27;100256.91;;;5.83;100.00
35908;BME280;22003;50.320;8.054;2023-02-02T07:21:52;100272.69;;;5.83;100.00
35908;BME280;22003;50.320;8.054;2023-02-02T07:24:18;100262.84;;;5.70;100.00
35908;BME280;22003;50.320;8.054;2023-02-02T07:26:43;100257.34;;;5.74;100.00
35908;BME280;22003;50.320;8.054;2023-02-02T07:29:11;100273.97;;;5.75;100.00
35908;BME280;22003;50.320;8.054;2023-02-02T07:31:37;100278.41;;;5.92;100.00
35908;BME280;22003;50.320;8.054;2023-02-02T07:34:02;100261.22;;;5.85;100.00
35908;BME280;22003;50.320;8.054;2023-02-02T07:36:28;100276.16;;;5.84;100.00
35908;BME280;22003;50.320;8.054;2023-02-02T07:38:53;100271.13;;;5.79;100.00
35908;BME280;22003;50.320;8.054;2023-02-02T07:41:18;100258.69;;;5.83;100.00
35908;BME280;22003;50.320;8.054;2023-02-02T07:43:47;100279.09;;;5.78;100.00
35908;BME280;22003;50.320;8.054;2023-02-02T07:46:13;100264.94;;;5.80;100.00
35908;BME280;22003;50.320;8.054;2023-02-02T07:48:38;100273.13;;;5.74;100.00
35908;BME280;22003;50.320;8.054;2023-02-02T07:51:06;100284.91;;;5.85;100.00
35908;BME280;22003;50.320;8.054;2023-02-02T07:53:32;100274.19;;;5.70;100.00
35908;BME280;22003;50.320;8.054;2023-02-02T07:58:31;100289.97;;;5.88;100.00
35908;BME280;22003;50.320;8.054;2023-02-02T08:01:00;100281.91;;;5.92;100.00
35908;BME280;22003;50.320;8.054;2023-02-02T08:03:26;100271.66;;;5.86;100.00
35908;BME280;22003;50.320;8.054;2023-02-02T08:05:51;100281.09;;;5.90;100.00
35908;BME280;22003;50.320;8.054;2023-02-02T08:08:16;100266.50;;;5.85;100.00
35908;BME280;22003;50.320;8.054;2023-02-02T08:10:47;100278.00;;;5.82;100.00
35908;BME280;22003;50.320;8.054;2023-02-02T08:13:12;100287.88;;;5.96;100.00
35908;BME280;22003;50.320;8.054;2023-02-02T08:15:38;100287.63;;;6.00;100.00
35908;BME280;22003;50.320;8.054;2023-02-02T08:18:03;100287.63;;;6.00;100.00
35908;BME280;22003;50.320;8.054;2023-02-02T08:20:28;100299.00;;;6.01;100.00
35908;BME280;22003;50.320;8.054;2023-02-02T08:22:55;100296.22;;;6.04;100.00
35908;BME280;22003;50.320;8.054;2023-02-02T08:25:20;100299.00;;;6.18;100.00
35908;BME280;22003;50.320;8.054;2023-02-02T08:27:45;100301.63;;;6.18;100.00
35908;BME280;22003;50.320;8.054;2023-02-02T08:30:11;100307.53;;;6.23;100.00
35908;BME280;22003;50.320;8.054;2023-02-02T08:32:36;100285.22;;;6.13;100.00
35908;BME280;22003;50.320;8.054;2023-02-02T08:35:01;100272.28;;;6.26;100.00
35908;BME280;22003;50.320;8.054;2023-02-02T08:37:27;100297.31;;;6.17;100.00
35908;BME280;22003;50.320;8.054;2023-02-02T08:39:52;100292.50;;;6.08;100.00
35908;BME280;22003;50.320;8.054;2023-02-02T08:42:17;100287.56;;;6.02;100.00
35908;BME280;22003;50.320;8.054;2023-02-02T08:44:42;100289.72;;;6.11;100.00
35908;BME280;22003;50.320;8.054;2023-02-02T08:47:08;100295.13;;;6.08;100.00
35908;BME280;22003;50.320;8.054;2023-02-02T08:49:33;100306.97;;;6.17;100.00
35908;BME280;22003;50.320;8.054;2023-02-02T08:51:58;100297.63;;;6.11;100.00
35908;BME280;22003;50.320;8.054;2023-02-02T08:54:23;100314.31;;;6.45;100.00
35908;BME280;22003;50.320;8.054;2023-02-02T08:56:49;100323.91;;;6.46;100.00
35908;BME280;22003;50.320;8.054;2023-02-02T08:59:14;100301.69;;;6.51;100.00
35908;BME280;22003;50.320;8.054;2023-02-02T09:01:39;100304.34;;;6.67;100.00
35908;BME280;22003;50.320;8.054;2023-02-02T09:04:07;100315.16;;;6.78;100.00
35908;BME280;22003;50.320;8.054;2023-02-02T09:06:39;100319.97;;;6.70;100.00
35908;BME280;22003;50.320;8.054;2023-02-02T09:09:08;100323.13;;;6.61;100.00
35908;BME280;22003;50.320;8.054;2023-02-02T09:11:34;100315.56;;;6.71;100.00
35908;BME280;22003;50.320;8.054;2023-02-02T09:13:59;100312.59;;;6.61;100.00
35908;BME280;22003;50.320;8.054;2023-02-02T09:16:30;100303.41;;;6.68;100.00
35908;BME280;22003;50.320;8.054;2023-02-02T09:18:56;100328.25;;;6.80;100.00
35908;BME280;22003;50.320;8.054;2023-02-02T09:21:21;100330.06;;;6.62;100.00
35908;BME280;22003;50.320;8.054;2023-02-02T09:23:48;100336.63;;;6.71;100.00
35908;BME280;22003;50.320;8.054;2023-02-02T09:28:52;100320.38;;;6.63;100.00
35908;BME280;22003;50.320;8.054;2023-02-02T09:31:18;100340.00;;;6.90;100.00
35908;BME280;22003;50.320;8.054;2023-02-02T09:33:44;100331.16;;;6.58;100.00
35908;BME280;22003;50.320;8.054;2023-02-02T09:36:14;100350.56;;;6.73;100.00
35908;BME280;22003;50.320;8.054;2023-02-02T09:38:40;100352.09;;;6.77;100.00
35908;BME280;22003;50.320;8.054;2023-02-02T09:44:34;100358.53;;;6.88;100.00
35908;BME280;22003;50.320;8.054;2023-02-02T09:52:44;100372.78;;;7.18;100.00
35908;BME280;22003;50.320;8.054;2023-02-02T09:55:15;100363.66;;;7.07;99.88
35908;BME280;22003;50.320;8.054;2023-02-02T09:57:46;100374.56;;;7.17;100.00
35908;BME280;22003;50.320;8.054;2023-02-02T10:00:29;100370.47;;;7.43;99.74
35908;BME280;22003;50.320;8.054;2023-02-02T10:03:02;100375.66;;;7.13;99.97
35908;BME280;22003;50.320;8.054;2023-02-02T10:05:41;100376.34;;;7.17;99.53
35908;BME280;22003;50.320;8.054;2023-02-02T10:08:14;100394.38;;;7.24;99.70
35908;BME280;22003;50.320;8.054;2023-02-02T10:10:42;100383.81;;;7.24;99.48
35908;BME280;22003;50.320;8.054;2023-02-02T10:13:14;100381.69;;;7.15;99.90
35908;BME280;22003;50.320;8.054;2023-02-02T10:16:05;100382.72;;;7.12;99.21
35908;BME280;22003;50.320;8.054;2023-02-02T10:18:47;100389.91;;;7.09;99.60
35908;BME280;22003;50.320;8.054;2023-02-02T10:24:22;100378.72;;;7.21;98.49
35908;BME280;22003;50.320;8.054;2023-02-02T10:26:53;100356.66;;;6.91;99.06
35908;BME280;22003;50.320;8.054;2023-02-02T10:29:45;100375.03;;;7.08;99.90
35908;BME280;22003;50.320;8.054;2023-02-02T10:32:22;100376.50;;;7.13;99.95
35908;BME280;22003;50.320;8.054;2023-02-02T10:37:37;100401.00;;;6.98;100.00
35908;BME280;22003;50.320;8.054;2023-02-02T10:45:55;100409.38;;;7.06;100.00
35908;BME280;22003;50.320;8.054;2023-02-02T10:48:22;100409.16;;;7.11;100.00
35908;BME280;22003;50.320;8.054;2023-02-02T10:50:54;100400.88;;;7.01;100.00
35908;BME280;22003;50.320;8.054;2023-02-02T10:53:22;100414.41;;;7.11;100.00
35908;BME280;22003;50.320;8.054;2023-02-02T10:55:59;100417.34;;;7.05;100.00
35908;BME280;22003;50.320;8.054;2023-02-02T11:00:56;100402.44;;;6.88;100.00
35908;BME280;22003;50.320;8.054;2023-02-02T11:03:26;100420.47;;;6.96;100.00
35908;BME280;22003;50.320;8.054;2023-02-02T11:05:52;100406.28;;;6.98;100.00
35908;BME280;22003;50.320;8.054;2023-02-02T11:08:41;100431.97;;;6.95;100.00
35908;BME280;22003;50.320;8.054;2023-02-02T11:11:19;100424.97;;;6.94;100.00
35908;BME280;22003;50.320;8.054;2023-02-02T11:13:53;100431.97;;;6.95;100.00
35908;BME280;22003;50.320;8.054;2023-02-02T11:16:22;100435.16;;;7.17;100.00
35908;BME280;22003;50.320;8.054;2023-02-02T11:18:47;100439.13;;;7.08;100.00
35908;BME280;22003;50.320;8.054;2023-02-02T11:21:32;100438.13;;;7.11;100.00
35908;BME280;22003;50.320;8.054;2023-02-02T11:26:24;100434.50;;;6.96;100.00
35908;BME280;22003;50.320;8.054;2023-02-02T11:28:53;100422.31;;;6.94;100.00
35908;BME280;22003;50.320;8.054;2023-02-02T11:31:33;100419.22;;;7.03;100.00
35908;BME280;22003;50.320;8.054;2023-02-02T11:34:18;100412.34;;;7.16;100.00
35908;BME280;22003;50.320;8.054;2023-02-02T11:37:20;100412.22;;;7.19;100.00
35908;BME280;22003;50.320;8.054;2023-02-02T11:39:46;100416.06;;;7.29;100.00
35908;BME280;22003;50.320;8.054;2023-02-02T11:42:19;100410.34;;;7.21;100.00
35908;BME280;22003;50.320;8.054;2023-02-02T11:44:48;100424.44;;;7.20;100.00
35908;BME280;22003;50.320;8.054;2023-02-02T11:47:28;100412.28;;;7.18;100.00
35908;BME280;22003;50.320;8.054;2023-02-02T11:49:56;100409.47;;;7.21;100.00
35908;BME280;22003;50.320;8.054;2023-02-02T11:52:24;100404.72;;;7.11;100.00
35908;BME280;22003;50.320;8.054;2023-02-02T11:54:50;100419.19;;;7.20;100.00
35908;BME280;22003;50.320;8.054;2023-02-02T11:57:20;100402.72;;;6.99;100.00
35908;BME280;22003;50.320;8.054;2023-02-02T11:59:47;100407.50;;;7.08;100.00
35908;BME280;22003;50.320;8.054;2023-02-02T12:02:23;100434.69;;;7.09;100.00
35908;BME280;22003;50.320;8.054;2023-02-02T12:04:52;100431.13;;;7.10;100.00
35908;BME280;22003;50.320;8.054;2023-02-02T12:07:23;100429.75;;;7.03;100.00
35908;BME280;22003;50.320;8.054;2023-02-02T12:09:49;100432.06;;;7.09;100.00
35908;BME280;22003;50.320;8.054;2023-02-02T12:12:33;100430.50;;;7.22;100.00
35908;BME280;22003;50.320;8.054;2023-02-02T12:18:13;100431.25;;;7.24;100.00
35908;BME280;22003;50.320;8.054;2023-02-02T12:20:47;100435.88;;;7.36;100.00
35908;BME280;22003;50.320;8.054;2023-02-02T12:23:34;100436.31;;;7.45;100.00
35908;BME280;22003;50.320;8.054;2023-02-02T12:26:14;100428.56;;;7.41;99.74
35908;BME280;22003;50.320;8.054;2023-02-02T12:29:03;100433.75;;;7.43;99.60
35908;BME280;22003;50.320;8.054;2023-02-02T12:31:55;100442.84;;;7.37;99.63
35908;BME280;22003;50.320;8.054;2023-02-02T12:34:48;100440.66;;;7.46;100.00
35908;BME280;22003;50.320;8.054;2023-02-02T12:45:44;100420.78;;;7.56;99.58
35908;BME280;22003;50.320;8.054;2023-02-02T12:48:18;100439.84;;;7.61;99.87
35908;BME280;22003;50.320;8.054;2023-02-02T12:51:16;100443.81;;;7.52;99.61
35908;BME280;22003;50.320;8.054;2023-02-02T12:53:59;100441.78;;;7.57;99.25
35908;BME280;22003;50.320;8.054;2023-02-02T13:04:46;100433.44;;;7.97;96.23
35908;BME280;22003;50.320;8.054;2023-02-02T13:07:25;100429.34;;;8.07;96.18
35908;BME280;22003;50.320;8.054;2023-02-02T13:10:03;100429.16;;;8.10;94.99
35908;BME280;22003;50.320;8.054;2023-02-02T13:12:36;100430.81;;;7.97;96.09
35908;BME280;22003;50.320;8.054;2023-02-02T13:15:06;100423.47;;;8.02;95.96
35908;BME280;22003;50.320;8.054;2023-02-02T13:18:05;100438.88;;;8.09;95.57
35908;BME280;22003;50.320;8.054;2023-02-02T13:20:38;100443.66;;;8.03;95.59
35908;BME280;22003;50.320;8.054;2023-02-02T13:23:12;100452.31;;;8.05;96.20
35908;BME280;22003;50.320;8.054;2023-02-02T13:25:46;100438.97;;;7.92;94.52
35908;BME280;22003;50.320;8.054;2023-02-02T13:28:21;100456.75;;;8.04;94.75
35908;BME280;22003;50.320;8.054;2023-02-02T13:30:49;100433.63;;;7.78;95.10
35908;BME280;22003;50.320;8.054;2023-02-02T13:33:20;100459.31;;;8.06;94.07
35908;BME280;22003;50.320;8.054;2023-02-02T13:35:52;100459.22;;;8.07;94.40
35908;BME280;22003;50.320;8.054;2023-02-02T13:38:23;100454.56;;;7.97;95.61
35908;BME280;22003;50.320;8.054;2023-02-02T13:40:52;100467.56;;;8.15;94.85
35908;BME280;22003;50.320;8.054;2023-02-02T13:49:19;100449.13;;;7.84;94.49
35908;BME280;22003;50.320;8.054;2023-02-02T13:54:47;100467.66;;;7.82;97.15
35908;BME280;22003;50.320;8.054;2023-02-02T14:00:29;100448.94;;;8.03;96.22
35908;BME280;22003;50.320;8.054;2023-02-02T14:03:00;100445.53;;;8.01;96.75
35908;BME280;22003;50.320;8.054;2023-02-02T14:05:34;100466.09;;;8.10;96.32
35908;BME280;22003;50.320;8.054;2023-02-02T14:08:20;100439.56;;;7.81;96.56
35908;BME280;22003;50.320;8.054;2023-02-02T14:13:20;100479.06;;;7.99;97.69
35908;BME280;22003;50.320;8.054;2023-02-02T14:16:07;100477.53;;;7.79;99.40
35908;BME280;22003;50.320;8.054;2023-02-02T14:23:56;100478.88;;;7.70;100.00
35908;BME280;22003;50.320;8.054;2023-02-02T14:26:46;100485.34;;;7.80;100.00
35908;BME280;22003;50.320;8.054;2023-02-02T14:31:58;100502.28;;;7.76;100.00
35908;BME280;22003;50.320;8.054;2023-02-02T14:34:41;100502.19;;;7.62;100.00
35908;BME280;22003;50.320;8.054;2023-02-02T14:43:10;100507.66;;;7.41;100.00
35908;BME280;22003;50.320;8.054;2023-02-02T14:48:31;100515.84;;;7.53;100.00
35908;BME280;22003;50.320;8.054;2023-02-02T14:50:59;100509.06;;;7.31;100.00
35908;BME280;22003;50.320;8.054;2023-02-02T14:53:37;100508.63;;;7.56;100.00
35908;BME280;22003;50.320;8.054;2023-02-02T14:56:12;100500.34;;;7.47;100.00
35908;BME280;22003;50.320;8.054;2023-02-02T15:03:53;100501.13;;;7.49;100.00
35908;BME280;22003;50.320;8.054;2023-02-02T15:14:39;100507.47;;;7.29;100.00
35908;BME280;22003;50.320;8.054;2023-02-02T15:25:05;100511.69;;;7.31;99.10
35908;BME280;22003;50.320;8.054;2023-02-02T15:27:36;100513.16;;;7.37;97.50
35908;BME280;22003;50.320;8.054;2023-02-02T15:30:06;100541.84;;;7.43;97.34
35908;BME280;22003;50.320;8.054;2023-02-02T15:32:34;100538.75;;;7.35;97.06
35908;BME280;22003;50.320;8.054;2023-02-02T15:35:02;100552.00;;;7.51;96.09
35908;BME280;22003;50.320;8.054;2023-02-02T15:37:31;100533.88;;;7.45;95.54
35908;BME280;22003;50.320;8.054;2023-02-02T15:40:09;100540.84;;;7.46;94.90
35908;BME280;22003;50.320;8.054;2023-02-02T15:42:41;100556.44;;;7.50;94.52
35908;BME280;22003;50.320;8.054;2023-02-02T15:45:32;100554.22;;;7.58;94.49
35908;BME280;22003;50.320;8.054;2023-02-02T15:48:07;100536.84;;;7.38;94.55
35908;BME280;22003;50.320;8.054;2023-02-02T15:50:34;100547.03;;;7.62;92.89
35908;BME280;22003;50.320;8.054;2023-02-02T15:53:00;100551.22;;;7.49;93.23
35908;BME280;22003;50.320;8.054;2023-02-02T15:55:32;100554.75;;;7.65;92.32
35908;BME280;22003;50.320;8.054;2023-02-02T15:57:58;100562.06;;;7.60;92.18
35908;BME280;22003;50.320;8.054;2023-02-02T16:03:05;100563.59;;;7.64;92.51
35908;BME280;22003;50.320;8.054;2023-02-02T16:08:01;100554.41;;;7.38;92.58
35908;BME280;22003;50.320;8.054;2023-02-02T16:10:28;100568.91;;;7.47;93.08
35908;BME280;22003;50.320;8.054;2023-02-02T16:12:53;100576.13;;;7.43;92.74
35908;BME280;22003;50.320;8.054;2023-02-02T16:15:24;100578.72;;;7.60;92.88
35908;BME280;22003;50.320;8.054;2023-02-02T16:18:12;100571.38;;;7.67;92.17
35908;BME280;22003;50.320;8.054;2023-02-02T16:20:40;100556.47;;;7.33;92.18
35908;BME280;22003;50.320;8.054;2023-02-02T16:23:12;100580.38;;;7.63;91.88
35908;BME280;22003;50.320;8.054;2023-02-02T16:25:48;100578.00;;;7.41;93.25
35908;BME280;22003;50.320;8.054;2023-02-02T16:28:16;100563.34;;;7.35;92.72
35908;BME280;22003;50.320;8.054;2023-02-02T16:30:43;100577.09;;;7.58;92.33
35908;BME280;22003;50.320;8.054;2023-02-02T16:33:38;100582.72;;;7.52;91.85
35908;BME280;22003;50.320;8.054;2023-02-02T16:36:25;100581.47;;;7.41;91.92
35908;BME280;22003;50.320;8.054;2023-02-02T16:38:53;100587.38;;;7.47;92.57
35908;BME280;22003;50.320;8.054;2023-02-02T16:41:46;100588.91;;;7.51;91.80
35908;BME280;22003;50.320;8.054;2023-02-02T16:44:41;100580.91;;;7.52;91.67
35908;BME280;22003;50.320;8.054;2023-02-02T16:52:32;100580.72;;;7.39;91.21
35908;BME280;22003;50.320;8.054;2023-02-02T16:54:58;100572.47;;;7.46;91.17
35908;BME280;22003;50.320;8.054;2023-02-02T16:57:29;100589.78;;;7.51;91.75
35908;BME280;22003;50.320;8.054;2023-02-02T16:59:58;100583.19;;;7.43;90.30
35908;BME280;22003;50.320;8.054;2023-02-02T17:02:34;100600.41;;;7.50;90.57
35908;BME280;22003;50.320;8.054;2023-02-02T17:05:02;100603.19;;;7.47;90.69
35908;BME280;22003;50.320;8.054;2023-02-02T17:07:31;100588.09;;;7.33;90.15
35908;BME280;22003;50.320;8.054;2023-02-02T17:12:34;100611.19;;;7.45;89.34
35908;BME280;22003;50.320;8.054;2023-02-02T17:15:10;100619.31;;;7.40;89.74
35908;BME280;22003;50.320;8.054;2023-02-02T17:17:47;100617.91;;;7.51;89.33
35908;BME280;22003;50.320;8.054;2023-02-02T17:20:14;100628.69;;;7.46;89.56
35908;BME280;22003;50.320;8.054;2023-02-02T17:22:46;100632.19;;;7.47;90.23
35908;BME280;22003;50.320;8.054;2023-02-02T17:25:28;100631.41;;;7.45;90.00
35908;BME280;22003;50.320;8.054;2023-02-02T17:27:55;100644.53;;;7.46;89.73
35908;BME280;22003;50.320;8.054;2023-02-02T17:30:21;100621.56;;;7.31;90.18
35908;BME280;22003;50.320;8.054;2023-02-02T17:32:46;100637.53;;;7.45;90.03
35908;BME280;22003;50.320;8.054;2023-02-02T17:35:17;100655.16;;;7.45;89.89
35908;BME280;22003;50.320;8.054;2023-02-02T17:37:43;100635.75;;;7.28;89.23
35908;BME280;22003;50.320;8.054;2023-02-02T17:40:16;100652.19;;;7.51;89.09
35908;BME280;22003;50.320;8.054;2023-02-02T17:42:43;100657.69;;;7.63;89.39
35908;BME280;22003;50.320;8.054;2023-02-02T17:45:21;100651.09;;;7.55;88.95
35908;BME280;22003;50.320;8.054;2023-02-02T17:47:47;100638.41;;;7.46;88.87
35908;BME280;22003;50.320;8.054;2023-02-02T17:50:13;100637.53;;;7.45;88.66
35908;BME280;22003;50.320;8.054;2023-02-02T17:52:38;100637.69;;;7.42;88.35
35908;BME280;22003;50.320;8.054;2023-02-02T17:55:19;100659.50;;;7.46;88.71
35908;BME280;22003;50.320;8.054;2023-02-02T17:57:46;100666.31;;;7.50;88.88
35908;BME280;22003;50.320;8.054;2023-02-02T18:00:12;100670.47;;;7.54;88.56
35908;BME280;22003;50.320;8.054;2023-02-02T18:02:37;100656.63;;;7.50;88.64
35908;BME280;22003;50.320;8.054;2023-02-02T18:05:03;100661.03;;;7.50;88.05
35908;BME280;22003;50.320;8.054;2023-02-02T18:07:29;100669.50;;;7.39;88.93
35908;BME280;22003;50.320;8.054;2023-02-02T18:09:54;100647.06;;;7.30;88.62
35908;BME280;22003;50.320;8.054;2023-02-02T18:12:20;100650.09;;;7.40;88.88
35908;BME280;22003;50.320;8.054;2023-02-02T18:14:45;100653.91;;;7.52;88.01
35908;BME280;22003;50.320;8.054;2023-02-02T18:17:10;100649.41;;;7.36;88.25
35908;BME280;22003;50.320;8.054;2023-02-02T18:19:35;100647.69;;;7.35;89.34
35908;BME280;22003;50.320;8.054;2023-02-02T18:22:03;100660.25;;;7.48;88.19
35908;BME280;22003;50.320;8.054;2023-02-02T18:24:28;100590.34;;;7.06;88.97
35908;BME280;22003;50.320;8.054;2023-02-02T18:26:53;100653.09;;;7.32;89.36
35908;BME280;22003;50.320;8.054;2023-02-02T18:29:18;100654.53;;;7.57;88.55
35908;BME280;22003;50.320;8.054;2023-02-02T18:31:44;100663.19;;;7.41;88.83
35908;BME280;22003;50.320;8.054;2023-02-02T18:34:09;100654.84;;;7.33;88.64
35908;BME280;22003;50.320;8.054;2023-02-02T18:36:34;100671.41;;;7.53;88.50
35908;BME280;22003;50.320;8.054;2023-02-02T18:39:00;100677.00;;;7.47;88.60
35908;BME280;22003;50.320;8.054;2023-02-02T18:41:26;100655.47;;;7.38;89.20
35908;BME280;22003;50.320;8.054;2023-02-02T18:43:54;100665.66;;;7.27;88.45
35908;BME280;22003;50.320;8.054;2023-02-02T18:46:19;100675.94;;;7.33;89.23
35908;BME280;22003;50.320;8.054;2023-02-02T18:48:44;100667.22;;;7.31;88.68
35908;BME280;22003;50.320;8.054;2023-02-02T18:51:13;100651.41;;;7.14;89.32
35908;BME280;22003;50.320;8.054;2023-02-02T18:53:42;100682.72;;;7.37;89.08
35908;BME280;22003;50.320;8.054;2023-02-02T18:56:09;100673.44;;;7.30;89.54
35908;BME280;22003;50.320;8.054;2023-02-02T18:58:35;100676.06;;;7.30;89.27
35908;BME280;22003;50.320;8.054;2023-02-02T19:01:12;100673.88;;;7.21;89.94
35908;BME280;22003;50.320;8.054;2023-02-02T19:03:38;100663.28;;;7.40;88.94
35908;BME280;22003;50.320;8.054;2023-02-02T19:06:05;100660.16;;;7.32;89.31
35908;BME280;22003;50.320;8.054;2023-02-02T19:08:49;100651.88;;;7.22;89.42
35908;BME280;22003;50.320;8.054;2023-02-02T19:11:18;100661.81;;;7.34;89.67
35908;BME280;22003;50.320;8.054;2023-02-02T19:13:44;100657.63;;;7.30;89.54
35908;BME280;22003;50.320;8.054;2023-02-02T19:16:25;100651.09;;;7.20;89.66
35908;BME280;22003;50.320;8.054;2023-02-02T19:18:51;100653.91;;;7.34;89.62
35908;BME280;22003;50.320;8.054;2023-02-02T19:21:19;100649.16;;;7.24;89.57
35908;BME280;22003;50.320;8.054;2023-02-02T19:23:44;100644.75;;;7.24;89.16
35908;BME280;22003;50.320;8.054;2023-02-02T19:26:23;100653.59;;;7.23;89.65
35908;BME280;22003;50.320;8.054;2023-02-02T19:28:51;100653.19;;;7.13;90.33
35908;BME280;22003;50.320;8.054;2023-02-02T19:31:16;100650.78;;;7.26;89.96
35908;BME280;22003;50.320;8.054;2023-02-02T19:33:49;100653.72;;;7.20;90.17
35908;BME280;22003;50.320;8.054;2023-02-02T19:36:17;100631.22;;;6.96;90.59
35908;BME280;22003;50.320;8.054;2023-02-02T19:38:44;100657.59;;;7.13;90.78
35908;BME280;22003;50.320;8.054;2023-02-02T19:41:16;100641.47;;;7.02;90.99
35908;BME280;22003;50.320;8.054;2023-02-02T19:43:43;100644.88;;;7.04;90.71
35908;BME280;22003;50.320;8.054;2023-02-02T19:46:20;100645.25;;;6.96;91.02
35908;BME280;22003;50.320;8.054;2023-02-02T19:48:46;100664.88;;;7.08;91.43
35908;BME280;22003;50.320;8.054;2023-02-02T19:54:02;100656.19;;;7.06;91.60
35908;BME280;22003;50.320;8.054;2023-02-02T19:56:34;100646.66;;;7.03;91.82
35908;BME280;22003;50.320;8.054;2023-02-02T19:59:03;100655.19;;;7.08;91.90
35908;BME280;22003;50.320;8.054;2023-02-02T20:01:34;100655.72;;;7.15;92.02
35908;BME280;22003;50.320;8.054;2023-02-02T20:03:59;100661.47;;;7.06;91.99
35908;BME280;22003;50.320;8.054;2023-02-02T20:06:27;100661.09;;;7.13;91.87